createdAt,value
2018-07-12T00:00:53.411Z,62.30
2018-07-12T00:03:19.780Z,62.20
2018-07-12T00:05:46.134Z,62.50
2018-07-12T00:08:12.487Z,62.50
2018-07-12T00:10:38.854Z,62.10
2018-07-12T00:13:05.222Z,62.50
2018-07-12T00:15:31.571Z,62.30
2018-07-12T00:17:57.963Z,62.10
2018-07-12T00:22:51.169Z,62.20
2018-07-12T00:25:17.559Z,62.30
2018-07-12T00:27:43.930Z,62.20
2018-07-12T00:30:10.419Z,62.30
2018-07-12T00:32:37.051Z,62.30
2018-07-12T00:35:03.416Z,62.30
2018-07-12T00:37:29.895Z,62.30
2018-07-12T00:39:56.304Z,62.50
2018-07-12T00:42:22.832Z,62.20
2018-07-12T00:44:49.283Z,62.10
2018-07-12T00:47:15.755Z,61.90
2018-07-12T00:49:42.113Z,61.70
2018-07-12T00:52:08.479Z,61.50
2018-07-12T00:54:34.935Z,61.40
2018-07-12T00:57:01.296Z,61.40
2018-07-12T01:01:54.517Z,61.10
2018-07-12T01:04:20.874Z,61.20
2018-07-12T01:06:47.253Z,61.20
2018-07-12T01:09:13.619Z,61.10
2018-07-12T01:11:39.972Z,61.00
2018-07-12T01:14:06.328Z,61.00
2018-07-12T01:16:32.706Z,61.20
2018-07-12T01:18:59.066Z,60.80
2018-07-12T01:21:25.415Z,61.30
2018-07-12T01:23:52.036Z,61.40
2018-07-12T01:26:18.421Z,61.60
2018-07-12T01:28:44.788Z,62.00
2018-07-12T01:31:11.157Z,62.40
2018-07-12T01:33:37.506Z,63.30
2018-07-12T01:36:03.908Z,63.30
2018-07-12T01:38:30.231Z,63.80
2018-07-12T01:40:56.583Z,64.40
2018-07-12T01:43:22.945Z,64.20
2018-07-12T01:45:49.308Z,64.10
2018-07-12T01:48:15.655Z,65.00
2018-07-12T01:50:42.016Z,64.70
2018-07-12T01:53:08.383Z,65.20
2018-07-12T01:55:34.737Z,65.00
2018-07-12T01:58:01.099Z,64.90
2018-07-12T02:00:27.515Z,64.90
2018-07-12T02:02:53.927Z,64.90
2018-07-12T02:05:20.296Z,65.10
2018-07-12T02:07:46.904Z,65.20
2018-07-12T02:10:13.260Z,65.10
2018-07-12T02:12:39.646Z,66.20
2018-07-12T02:15:06.045Z,65.70
2018-07-12T02:17:32.416Z,66.00
2018-07-12T02:19:58.780Z,66.00
2018-07-12T02:22:25.174Z,65.80
2018-07-12T02:24:51.570Z,65.80
2018-07-12T02:27:18.050Z,66.60
2018-07-12T02:29:44.415Z,66.70
2018-07-12T02:34:37.583Z,67.20
2018-07-12T02:37:03.951Z,67.10
2018-07-12T02:39:30.325Z,68.10
2018-07-12T02:41:56.745Z,67.30
2018-07-12T02:44:23.103Z,67.30
2018-07-12T02:46:49.463Z,67.40
2018-07-12T02:49:16.375Z,67.60
2018-07-12T02:51:42.899Z,67.70
2018-07-12T02:54:09.254Z,67.60
2018-07-12T02:56:35.628Z,68.20
2018-07-12T02:59:02.038Z,68.10
2018-07-12T03:01:28.408Z,68.00
2018-07-12T03:03:54.819Z,68.60
2018-07-12T03:06:21.305Z,68.60
2018-07-12T03:08:47.674Z,68.30
2018-07-12T03:11:14.047Z,68.40
2018-07-12T03:13:40.415Z,68.70
2018-07-12T03:16:06.816Z,68.70
2018-07-12T03:18:33.557Z,68.70
2018-07-12T03:20:59.939Z,68.50
2018-07-12T03:23:26.310Z,69.30
2018-07-12T03:25:52.962Z,68.40
2018-07-12T03:28:19.329Z,68.50
2018-07-12T03:30:45.736Z,69.40
2018-07-12T03:33:12.141Z,68.60
2018-07-12T03:35:38.503Z,69.00
2018-07-12T03:40:31.755Z,69.30
2018-07-12T03:42:58.111Z,69.70
2018-07-12T03:45:24.481Z,69.50
2018-07-12T03:47:50.860Z,69.40
2018-07-12T03:50:17.226Z,69.30
2018-07-12T03:52:43.631Z,69.60
2018-07-12T03:55:10.034Z,69.50
2018-07-12T03:57:36.413Z,69.30
2018-07-12T04:00:02.775Z,69.30
2018-07-12T04:02:29.150Z,69.20
2018-07-12T04:04:55.524Z,69.60
2018-07-12T04:07:21.927Z,69.90
2018-07-12T04:09:48.547Z,69.50
2018-07-12T04:12:14.921Z,70.30
2018-07-12T04:14:41.288Z,69.50
2018-07-12T04:17:07.664Z,69.40
2018-07-12T04:19:34.024Z,69.80
2018-07-12T04:22:00.391Z,69.60
2018-07-12T04:24:26.779Z,69.70
2018-07-12T04:26:53.215Z,70.10
2018-07-12T04:29:19.583Z,70.40
2018-07-12T04:31:45.965Z,70.30
2018-07-12T04:34:12.347Z,70.70
2018-07-12T04:36:38.704Z,70.80
2018-07-12T04:39:05.542Z,70.80
2018-07-12T04:41:32.159Z,71.30
2018-07-12T04:43:58.525Z,71.80
2018-07-12T04:46:24.917Z,71.60
2018-07-12T04:48:51.283Z,71.90
2018-07-12T04:51:18.766Z,72.20
2018-07-12T04:53:45.381Z,71.90
2018-07-12T04:56:11.763Z,72.20
2018-07-12T04:58:38.232Z,72.00
2018-07-12T05:01:04.608Z,72.10
2018-07-12T05:03:31.194Z,71.90
2018-07-12T05:05:57.570Z,72.00
2018-07-12T05:08:23.965Z,71.90
2018-07-12T05:10:50.347Z,71.70
2018-07-12T05:13:16.724Z,72.10
2018-07-12T05:15:43.126Z,72.60
2018-07-12T05:18:09.515Z,72.20
2018-07-12T05:20:35.905Z,72.30
2018-07-12T05:23:02.305Z,72.10
2018-07-12T05:25:28.674Z,72.30
2018-07-12T05:27:55.078Z,73.00
2018-07-12T05:30:21.463Z,73.20
2018-07-12T05:32:47.852Z,73.20
2018-07-12T05:35:14.237Z,73.60
2018-07-12T05:37:41.574Z,73.60
2018-07-12T05:40:08.913Z,73.60
2018-07-12T05:42:36.280Z,73.70
2018-07-12T05:45:03.691Z,74.20
2018-07-12T05:47:31.034Z,75.10
2018-07-12T05:49:58.491Z,75.70
2018-07-12T05:52:25.985Z,75.50
2018-07-12T05:54:53.429Z,75.20
2018-07-12T05:57:20.926Z,73.90
2018-07-12T05:59:48.369Z,73.50
2018-07-12T06:02:18.719Z,72.30
2018-07-12T06:04:46.478Z,70.80
2018-07-12T06:07:18.543Z,69.10
2018-07-12T06:09:46.099Z,68.40
2018-07-12T06:12:13.557Z,68.40
2018-07-12T06:14:41.028Z,68.30
2018-07-12T06:17:08.459Z,68.00
2018-07-12T06:19:35.895Z,68.50
2018-07-12T06:22:03.340Z,68.70
2018-07-12T06:24:30.789Z,69.00
2018-07-12T06:26:58.239Z,69.20
2018-07-12T06:29:25.679Z,68.90
2018-07-12T06:31:53.100Z,68.30
2018-07-12T06:34:20.528Z,67.00
2018-07-12T06:36:48.007Z,67.80
2018-07-12T06:39:15.463Z,67.50
2018-07-12T06:41:42.936Z,66.50
2018-07-12T06:44:10.381Z,64.40
2018-07-12T06:46:37.857Z,63.70
2018-07-12T06:49:05.392Z,62.90
2018-07-12T06:51:33.164Z,63.10
2018-07-12T06:54:00.624Z,63.60
2018-07-12T06:56:28.130Z,63.70
2018-07-12T06:58:55.582Z,64.70
2018-07-12T07:01:23.286Z,63.50
2018-07-12T07:03:50.845Z,62.90
2018-07-12T07:06:18.368Z,62.90
2018-07-12T07:08:45.843Z,63.00
2018-07-12T07:11:13.300Z,62.70
2018-07-12T07:13:40.780Z,62.60
2018-07-12T07:16:08.959Z,62.90
2018-07-12T07:18:36.413Z,63.70
2018-07-12T07:21:03.869Z,64.60
2018-07-12T07:23:31.305Z,64.80
2018-07-12T07:25:58.753Z,65.00
2018-07-12T07:28:26.243Z,64.60
2018-07-12T07:30:53.676Z,64.90
2018-07-12T07:33:21.143Z,64.10
2018-07-12T07:35:48.629Z,60.60
2018-07-12T07:38:16.101Z,59.10
2018-07-12T07:40:43.555Z,59.00
2018-07-12T07:43:11.055Z,59.20
2018-07-12T07:45:38.539Z,58.70
2018-07-12T07:48:05.972Z,58.50
2018-07-12T07:50:33.404Z,58.00
2018-07-12T07:55:28.289Z,56.90
2018-07-12T07:57:55.788Z,57.20
2018-07-12T08:00:23.260Z,57.70
2018-07-12T08:02:50.857Z,57.50
2018-07-12T08:05:18.319Z,57.20
2018-07-12T08:07:46.284Z,56.80
2018-07-12T08:10:14.153Z,56.60
2018-07-12T08:12:41.902Z,56.40
2018-07-12T08:15:09.314Z,56.60
2018-07-12T08:17:37.125Z,56.60
2018-07-12T08:20:04.652Z,56.60
2018-07-12T08:22:32.233Z,57.20
2018-07-12T08:24:59.707Z,57.40
2018-07-12T08:27:27.120Z,57.60
2018-07-12T08:29:54.664Z,56.50
2018-07-12T08:32:22.265Z,56.10
2018-07-12T08:34:49.758Z,56.00
2018-07-12T08:37:17.201Z,56.20
2018-07-12T08:39:44.628Z,55.30
2018-07-12T08:42:12.047Z,54.30
2018-07-12T08:44:39.446Z,54.50
2018-07-12T08:47:07.107Z,54.70
2018-07-12T08:49:34.507Z,53.90
2018-07-12T08:52:01.920Z,54.30
2018-07-12T08:54:29.443Z,54.20
2018-07-12T08:56:56.863Z,54.30
2018-07-12T08:59:24.271Z,53.00
2018-07-12T09:01:51.941Z,52.70
2018-07-12T09:04:19.380Z,52.80
2018-07-12T09:06:46.820Z,52.90
2018-07-12T09:09:14.252Z,52.70
2018-07-12T09:11:41.668Z,51.30
2018-07-12T09:14:09.091Z,51.20
2018-07-12T09:16:36.519Z,52.10
2018-07-12T09:19:03.982Z,51.30
2018-07-12T09:21:31.441Z,51.10
2018-07-12T09:23:59.013Z,50.40
2018-07-12T09:26:26.436Z,50.20
2018-07-12T09:28:53.877Z,50.70
2018-07-12T09:31:21.349Z,50.30
2018-07-12T09:33:48.808Z,50.60
2018-07-12T09:36:16.219Z,51.00
2018-07-12T09:38:45.876Z,50.10
2018-07-12T09:41:13.335Z,49.90
2018-07-12T09:43:42.038Z,49.40
2018-07-12T09:48:38.740Z,47.30
2018-07-12T09:51:06.196Z,47.70
2018-07-12T09:53:33.639Z,47.70
2018-07-12T09:56:02.702Z,47.50
2018-07-12T09:58:30.532Z,48.40
2018-07-12T10:01:03.798Z,48.70
2018-07-12T10:03:37.066Z,48.40
2018-07-12T10:08:43.350Z,46.20
2018-07-12T10:11:15.386Z,47.40
2018-07-12T10:13:50.438Z,47.40
2018-07-12T10:16:24.622Z,46.50
2018-07-12T10:18:52.056Z,46.60
2018-07-12T10:21:19.612Z,47.80
2018-07-12T10:23:47.168Z,46.30
2018-07-12T10:26:14.574Z,46.10
2018-07-12T10:28:41.998Z,45.80
2018-07-12T10:31:09.417Z,45.10
2018-07-12T10:33:36.803Z,45.20
2018-07-12T10:36:04.259Z,45.10
2018-07-12T10:38:31.692Z,45.60
2018-07-12T10:40:59.084Z,45.10
2018-07-12T10:43:26.534Z,46.60
2018-07-12T10:45:53.950Z,44.60
2018-07-12T10:48:21.355Z,45.10
2018-07-12T10:50:48.766Z,45.30
2018-07-12T10:53:16.213Z,43.70
2018-07-12T10:55:43.635Z,43.80
2018-07-12T10:58:11.040Z,43.20
2018-07-12T11:00:38.445Z,44.40
2018-07-12T11:03:06.060Z,43.00
2018-07-12T11:05:33.471Z,42.50
2018-07-12T11:08:00.992Z,42.40
2018-07-12T11:10:28.576Z,42.70
2018-07-12T11:13:13.000Z,42.60
2018-07-12T11:15:40.553Z,43.50
2018-07-12T11:18:07.985Z,43.10
2018-07-12T11:23:02.799Z,43.10
2018-07-12T11:25:30.271Z,42.30
2018-07-12T11:27:57.724Z,42.30
2018-07-12T11:30:25.147Z,43.00
2018-07-12T11:32:52.546Z,42.60
2018-07-12T11:35:19.952Z,42.40
2018-07-12T11:37:47.326Z,40.80
2018-07-12T11:40:14.717Z,40.40
2018-07-12T11:42:42.119Z,40.90
2018-07-12T11:47:36.911Z,41.90
2018-07-12T11:50:04.853Z,42.70
2018-07-12T11:52:32.385Z,42.10
2018-07-12T11:54:59.956Z,41.30
2018-07-12T11:57:27.355Z,40.00
2018-07-12T11:59:54.995Z,39.00
2018-07-12T12:02:22.661Z,40.20
2018-07-12T12:04:50.084Z,40.10
2018-07-12T12:07:17.523Z,39.00
2018-07-12T12:12:12.492Z,39.30
2018-07-12T12:14:39.945Z,40.30
2018-07-12T12:17:07.491Z,40.30
2018-07-12T12:19:34.917Z,40.20
2018-07-12T12:22:02.303Z,39.40
2018-07-12T12:24:29.693Z,38.50
2018-07-12T12:26:57.107Z,38.10
2018-07-12T12:29:24.753Z,37.80
2018-07-12T12:31:52.123Z,37.50
2018-07-12T12:34:19.701Z,38.60
2018-07-12T12:36:47.124Z,38.80
2018-07-12T12:39:14.517Z,37.10
2018-07-12T12:41:41.962Z,36.70
2018-07-12T12:46:51.165Z,38.30
2018-07-12T12:49:18.612Z,39.70
2018-07-12T12:51:46.011Z,38.50
2018-07-12T12:54:13.424Z,38.70
2018-07-12T12:56:40.841Z,37.30
2018-07-12T12:59:08.278Z,37.40
2018-07-12T13:01:35.696Z,37.70
2018-07-12T13:04:03.295Z,37.60
2018-07-12T13:06:30.719Z,38.40
2018-07-12T13:08:58.108Z,38.70
2018-07-12T13:11:25.499Z,37.20
2018-07-12T13:13:52.897Z,35.90
2018-07-12T13:16:20.299Z,35.80
2018-07-12T13:18:47.719Z,36.30
2018-07-12T13:21:15.144Z,36.90
2018-07-12T13:23:42.559Z,37.60
2018-07-12T13:26:09.970Z,38.20
2018-07-12T13:31:05.102Z,37.90
2018-07-12T13:33:32.535Z,38.20
2018-07-12T13:35:59.943Z,38.10
2018-07-12T13:38:27.324Z,37.40
2018-07-12T13:40:54.757Z,35.70
2018-07-12T13:43:22.163Z,35.80
2018-07-12T13:45:49.591Z,35.50
2018-07-12T13:48:16.989Z,35.90
2018-07-12T13:50:44.396Z,34.40
2018-07-12T13:53:11.839Z,34.80
2018-07-12T13:55:39.477Z,34.80
2018-07-12T13:58:06.891Z,34.30
2018-07-12T14:00:34.287Z,35.10
2018-07-12T14:03:01.675Z,35.30
2018-07-12T14:05:29.152Z,35.60
2018-07-12T14:07:56.539Z,35.30
2018-07-12T14:10:23.932Z,36.10
2018-07-12T14:12:51.478Z,35.60
2018-07-12T14:15:18.909Z,35.50
2018-07-12T14:17:46.338Z,35.80
2018-07-12T14:20:13.964Z,35.30
2018-07-12T14:22:41.398Z,35.50
2018-07-12T14:25:08.800Z,35.50
2018-07-12T14:30:04.092Z,35.40
2018-07-12T14:32:31.503Z,34.50
2018-07-12T14:34:58.946Z,34.20
2018-07-12T14:39:53.759Z,33.80
2018-07-12T14:42:21.175Z,33.80
2018-07-12T14:44:48.564Z,33.80
2018-07-12T14:49:43.395Z,33.90
2018-07-12T14:52:10.823Z,34.30
2018-07-12T14:54:38.306Z,34.20
2018-07-12T14:57:05.795Z,33.80
2018-07-12T14:59:33.234Z,33.80
2018-07-12T15:02:00.711Z,34.10
2018-07-12T15:04:28.112Z,34.00
2018-07-12T15:06:55.513Z,34.40
2018-07-12T15:09:23.014Z,33.80
2018-07-12T15:14:17.894Z,33.70
2018-07-12T15:16:45.339Z,34.20
2018-07-12T15:19:12.727Z,34.00
2018-07-12T15:21:40.099Z,33.90
2018-07-12T15:24:07.485Z,34.00
2018-07-12T15:26:34.911Z,34.00
2018-07-12T15:29:02.344Z,34.50
2018-07-12T15:31:29.822Z,34.40
2018-07-12T15:33:57.180Z,34.50
2018-07-12T15:36:24.717Z,34.30
2018-07-12T15:38:52.111Z,34.10
2018-07-12T15:41:19.542Z,33.40
2018-07-12T15:43:46.964Z,34.10
2018-07-12T15:46:14.375Z,34.20
2018-07-12T15:48:41.804Z,33.40
2018-07-12T15:51:09.287Z,33.80
2018-07-12T15:53:36.747Z,34.30
2018-07-12T15:56:04.463Z,33.80
2018-07-12T15:58:32.008Z,32.80
2018-07-12T16:00:59.439Z,33.40
2018-07-12T16:03:26.870Z,33.90
2018-07-12T16:05:54.699Z,34.20
2018-07-12T16:08:22.169Z,34.80
2018-07-12T16:10:49.691Z,34.90
2018-07-12T16:13:17.157Z,34.60
2018-07-12T16:15:45.129Z,33.70
2018-07-12T16:18:13.395Z,34.20
2018-07-12T16:20:40.966Z,33.80
2018-07-12T16:23:08.384Z,33.80
2018-07-12T16:25:35.988Z,33.90
2018-07-12T16:28:03.463Z,34.60
2018-07-12T16:30:30.936Z,34.50
2018-07-12T16:32:58.358Z,34.60
2018-07-12T16:35:25.808Z,34.60
2018-07-12T16:37:53.241Z,34.90
2018-07-12T16:40:20.929Z,34.70
2018-07-12T16:42:48.372Z,34.70
2018-07-12T16:45:15.820Z,34.60
2018-07-12T16:47:43.255Z,34.80
2018-07-12T16:50:10.724Z,35.20
2018-07-12T16:52:38.211Z,35.50
2018-07-12T16:55:05.676Z,35.60
2018-07-12T16:57:33.107Z,34.70
2018-07-12T17:00:00.538Z,34.80
2018-07-12T17:02:28.153Z,34.80
2018-07-12T17:04:55.705Z,34.60
2018-07-12T17:07:23.120Z,34.30
2018-07-12T17:09:50.566Z,34.30
2018-07-12T17:12:17.989Z,34.50
2018-07-12T17:14:45.376Z,34.50
2018-07-12T17:17:12.799Z,34.70
2018-07-12T17:19:40.256Z,35.10
2018-07-12T17:22:07.935Z,34.90
2018-07-12T17:27:02.790Z,34.30
2018-07-12T17:29:30.268Z,34.20
2018-07-12T17:31:57.700Z,34.00
2018-07-12T17:34:25.170Z,33.60
2018-07-12T17:36:52.661Z,33.50
2018-07-12T17:39:20.073Z,33.60
2018-07-12T17:41:47.524Z,33.60
2018-07-12T17:44:14.935Z,33.50
2018-07-12T17:46:42.378Z,33.10
2018-07-12T17:49:09.783Z,33.20
2018-07-12T17:54:04.867Z,33.40
2018-07-12T17:58:59.853Z,33.50
2018-07-12T18:01:27.291Z,33.80
2018-07-12T18:03:54.739Z,33.70
2018-07-12T18:06:22.184Z,33.60
2018-07-12T18:08:49.774Z,33.70
2018-07-12T18:11:17.252Z,33.30
2018-07-12T18:13:44.733Z,33.20
2018-07-12T18:16:12.145Z,33.50
2018-07-12T18:18:39.574Z,33.60
2018-07-12T18:21:07.291Z,33.60
2018-07-12T18:23:34.765Z,33.50
2018-07-12T18:26:02.188Z,33.60
2018-07-12T18:28:29.608Z,33.70
2018-07-12T18:30:57.052Z,33.70
2018-07-12T18:35:51.919Z,34.00
2018-07-12T18:38:19.563Z,34.20
2018-07-12T18:40:47.065Z,34.60
2018-07-12T18:43:14.530Z,34.80
2018-07-12T18:45:42.022Z,35.40
2018-07-12T18:48:09.507Z,35.20
2018-07-12T18:50:36.938Z,35.40
2018-07-12T18:53:04.399Z,35.80
2018-07-12T18:55:31.909Z,36.00
2018-07-12T18:57:59.346Z,36.20
2018-07-12T19:00:26.776Z,36.50
2018-07-12T19:02:54.215Z,36.70
2018-07-12T19:05:21.658Z,36.90
2018-07-12T19:07:49.081Z,37.20
2018-07-12T19:12:44.161Z,37.80
2018-07-12T19:15:11.695Z,38.40
2018-07-12T19:17:39.011Z,38.60
2018-07-12T19:20:06.520Z,38.90
2018-07-12T19:22:33.984Z,39.50
2018-07-12T19:25:01.425Z,39.60
2018-07-12T19:27:28.883Z,40.10
2018-07-12T19:29:56.312Z,41.00
2018-07-12T19:32:23.713Z,41.70
2018-07-12T19:34:51.216Z,42.20
2018-07-12T19:37:18.571Z,42.60
2018-07-12T19:39:45.999Z,43.30
2018-07-12T19:42:13.436Z,43.90
2018-07-12T19:44:40.902Z,44.40
2018-07-12T19:47:08.385Z,44.50
2018-07-12T19:49:35.840Z,45.20
2018-07-12T19:52:03.357Z,45.80
2018-07-12T19:54:30.894Z,45.90
2018-07-12T19:56:58.517Z,46.20
2018-07-12T19:59:26.042Z,46.30
2018-07-12T20:01:53.788Z,46.50
2018-07-12T20:04:21.410Z,47.10
2018-07-12T20:06:48.841Z,47.70
2018-07-12T20:09:16.360Z,48.10
2018-07-12T20:11:43.817Z,48.40
2018-07-12T20:14:11.231Z,48.40
2018-07-12T20:16:39.064Z,48.30
2018-07-12T20:19:07.443Z,48.70
2018-07-12T20:21:35.180Z,49.00
2018-07-12T20:24:02.660Z,49.10
2018-07-12T20:26:30.125Z,49.80
2018-07-12T20:28:57.607Z,49.80
2018-07-12T20:31:25.076Z,50.40
2018-07-12T20:33:52.589Z,50.60
2018-07-12T20:36:20.255Z,51.20
2018-07-12T20:38:47.675Z,51.40
2018-07-12T20:41:15.167Z,51.70
2018-07-12T20:43:42.548Z,51.80
2018-07-12T20:46:09.971Z,52.00
2018-07-12T20:48:37.363Z,52.60
2018-07-12T20:51:04.817Z,52.70
2018-07-12T20:53:32.380Z,52.50
2018-07-12T20:55:59.779Z,53.20
2018-07-12T20:58:27.161Z,53.00
2018-07-12T21:00:54.550Z,53.10
2018-07-12T21:03:21.972Z,53.40
2018-07-12T21:05:49.471Z,53.20
2018-07-12T21:08:17.091Z,53.60
2018-07-12T21:10:44.508Z,53.00
2018-07-12T21:13:11.914Z,53.00
2018-07-12T21:15:39.400Z,52.80
2018-07-12T21:18:06.791Z,53.00
2018-07-12T21:20:34.243Z,52.80
2018-07-12T21:23:01.691Z,52.80
2018-07-12T21:25:29.111Z,53.20
2018-07-12T21:27:56.540Z,53.10
2018-07-12T21:30:23.930Z,53.20
2018-07-12T21:32:51.339Z,53.40
2018-07-12T21:35:18.759Z,53.40
2018-07-12T21:37:46.225Z,53.50
2018-07-12T21:40:13.685Z,53.60
2018-07-12T21:42:41.156Z,53.80
2018-07-12T21:45:08.561Z,53.80
2018-07-12T21:47:35.980Z,53.90
2018-07-12T21:50:03.467Z,53.80
2018-07-12T21:52:30.859Z,54.10
2018-07-12T21:54:58.332Z,54.50
2018-07-12T21:57:25.732Z,54.20
2018-07-12T21:59:53.119Z,54.40
2018-07-12T22:02:20.531Z,54.50
2018-07-12T22:04:47.928Z,54.30
2018-07-12T22:10:18.739Z,54.50
2018-07-12T22:12:46.171Z,55.00
2018-07-12T22:15:13.584Z,55.60
2018-07-12T22:17:41.009Z,55.80
2018-07-12T22:20:08.433Z,55.80
2018-07-12T22:22:35.909Z,56.10
2018-07-12T22:25:03.393Z,56.00
2018-07-12T22:27:30.788Z,56.50
2018-07-12T22:29:58.190Z,56.70
2018-07-12T22:32:25.576Z,57.00
2018-07-12T22:34:52.953Z,56.70
2018-07-12T22:37:20.364Z,57.10
2018-07-12T22:39:47.749Z,57.80
2018-07-12T22:42:15.143Z,58.00
2018-07-12T22:44:42.578Z,58.30
2018-07-12T22:47:09.999Z,58.10
2018-07-12T22:49:37.435Z,58.40
2018-07-12T22:52:04.835Z,59.30
2018-07-12T22:54:32.338Z,58.80
2018-07-12T22:56:59.763Z,59.40
2018-07-12T22:59:27.135Z,59.60
2018-07-12T23:01:54.526Z,59.70
2018-07-12T23:04:21.940Z,59.50
2018-07-12T23:06:49.399Z,59.80
2018-07-12T23:09:16.727Z,60.10
2018-07-12T23:11:44.123Z,60.50
2018-07-12T23:14:11.524Z,60.50
2018-07-12T23:16:39.121Z,60.60
2018-07-12T23:19:06.519Z,60.80
2018-07-12T23:21:34.358Z,60.70
2018-07-12T23:24:01.919Z,60.70
2018-07-12T23:26:30.101Z,62.00
2018-07-12T23:28:57.503Z,62.00
2018-07-12T23:31:24.900Z,62.20
2018-07-12T23:33:52.296Z,62.80
2018-07-12T23:36:19.727Z,63.20
2018-07-12T23:38:47.114Z,63.10
2018-07-12T23:41:14.503Z,62.70
2018-07-12T23:43:42.099Z,63.20
2018-07-12T23:46:09.491Z,63.10
2018-07-12T23:48:36.902Z,63.20
2018-07-12T23:51:04.344Z,63.10
2018-07-12T23:53:31.727Z,63.20
2018-07-12T23:55:59.098Z,63.90
2018-07-12T23:58:26.515Z,63.20
